Time;durP1;ratioP1;P1;durP2;ratioP2;P2;SDS_P1;SDS_P2;PMS_P1;PMS_P2;Temp;Humidity;BMP_temperature;BMP_pressure;BME280_temperature;BME280_humidity;BME280_pressure;Samples;Min_cycle;Max_cycle;Signal;HPM_P1;HPM_P2
2022/08/22 00:02:04;;;;;;;8.23;1.53;;;;;;;;;;5008794;28;20045;-47
2022/08/22 00:04:36;;;;;;;9.82;2.10;;;;;;;;;;4997560;28;20523;-44
2022/08/22 00:07:06;;;;;;;6.47;2.00;;;;;;;;;;5002415;28;20034;-49
2022/08/22 00:09:36;;;;;;;7.05;1.67;;;;;;;;;;4997326;28;20122;-44
2022/08/22 00:12:07;;;;;;;12.60;2.78;;;;;;;;;;4997702;28;20037;-45
2022/08/22 00:14:40;;;;;;;8.70;1.60;;;;;;;;;;4995966;28;20049;-47
2022/08/22 00:17:16;;;;;;;6.40;1.88;;;;;;;;;;4999748;28;20045;-46
2022/08/22 00:19:45;;;;;;;9.02;1.88;;;;;;;;;;4999559;28;20045;-48
2022/08/22 00:22:19;;;;;;;8.23;1.80;;;;;;;;;;4999490;28;20296;-46
2022/08/22 00:24:48;;;;;;;8.82;1.70;;;;;;;;;;4988928;28;20621;-46
2022/08/22 00:27:15;;;;;;;6.97;1.70;;;;;;;;;;4996512;28;20046;-45
2022/08/22 00:29:43;;;;;;;8.68;1.70;;;;;;;;;;5005360;28;20049;-49
2022/08/22 00:32:13;;;;;;;8.68;2.20;;;;;;;;;;4992636;28;20037;-48
2022/08/22 00:34:42;;;;;;;7.85;1.88;;;;;;;;;;4997855;28;20044;-47
2022/08/22 00:37:15;;;;;;;7.00;1.65;;;;;;;;;;4980394;28;20072;-48
2022/08/22 00:39:46;;;;;;;6.57;1.87;;;;;;;;;;4997707;28;20484;-47
2022/08/22 00:42:31;;;;;;;7.82;1.98;;;;;;;;;;5007004;28;20821;-45
2022/08/22 00:45:15;;;;;;;6.97;1.55;;;;;;;;;;4998276;28;20422;-48
2022/08/22 00:47:51;;;;;;;9.35;1.80;;;;;;;;;;5006634;28;20052;-49
2022/08/22 00:50:33;;;;;;;9.70;1.63;;;;;;;;;;5003030;28;20107;-45
2022/08/22 00:53:10;;;;;;;9.93;2.20;;;;;;;;;;4976659;28;20041;-47
2022/08/22 00:55:46;;;;;;;5.43;1.65;;;;;;;;;;4993205;28;20053;-48
2022/08/22 00:58:28;;;;;;;9.60;3.13;;;;;;;;;;4969090;28;20056;-49
2022/08/22 01:00:58;;;;;;;7.30;1.65;;;;;;;;;;4995003;28;20045;-48
2022/08/22 01:03:28;;;;;;;6.43;1.58;;;;;;;;;;4981711;28;20029;-47
2022/08/22 01:06:04;;;;;;;6.43;1.77;;;;;;;;;;4991489;28;20123;-49
2022/08/22 01:08:37;;;;;;;6.70;2.17;;;;;;;;;;5001858;28;20037;-51
2022/08/22 01:11:10;;;;;;;9.25;2.05;;;;;;;;;;5000565;28;20044;-48
2022/08/22 01:13:46;;;;;;;5.47;1.67;;;;;;;;;;4996054;28;20057;-50
2022/08/22 01:16:20;;;;;;;7.05;1.90;;;;;;;;;;5001894;28;20100;-48
2022/08/22 01:18:56;;;;;;;8.87;1.83;;;;;;;;;;4989800;28;20037;-47
2022/08/22 01:21:41;;;;;;;7.32;1.90;;;;;;;;;;4999027;28;20054;-48
2022/08/22 01:24:32;;;;;;;8.80;2.00;;;;;;;;;;4976015;28;20042;-49
2022/08/22 01:27:17;;;;;;;4.97;1.40;;;;;;;;;;4983154;28;20045;-47
2022/08/22 01:30:01;;;;;;;8.05;1.80;;;;;;;;;;4949304;28;20573;-48
2022/08/22 01:32:54;;;;;;;6.87;1.53;;;;;;;;;;4998710;28;20592;-46
2022/08/22 01:35:36;;;;;;;10.18;1.92;;;;;;;;;;4980179;28;20050;-47
2022/08/22 01:38:14;;;;;;;10.90;2.20;;;;;;;;;;4992775;28;20044;-48
2022/08/22 01:40:52;;;;;;;8.05;1.95;;;;;;;;;;4991176;28;20107;-48
2022/08/22 01:43:23;;;;;;;8.55;1.77;;;;;;;;;;5000877;28;20053;-51
2022/08/22 01:46:06;;;;;;;7.80;1.50;;;;;;;;;;4988702;28;20052;-49
2022/08/22 01:48:35;;;;;;;7.53;2.05;;;;;;;;;;5002823;28;20038;-48
2022/08/22 01:51:12;;;;;;;6.47;1.65;;;;;;;;;;4996645;28;20072;-46
2022/08/22 01:53:41;;;;;;;9.45;2.25;;;;;;;;;;5008147;28;20117;-46
2022/08/22 01:56:10;;;;;;;8.05;1.90;;;;;;;;;;5008393;28;20092;-48
2022/08/22 01:58:39;;;;;;;7.40;1.20;;;;;;;;;;5005889;28;20842;-45
2022/08/22 02:01:16;;;;;;;6.03;1.25;;;;;;;;;;5012712;28;20077;-47
2022/08/22 02:03:51;;;;;;;6.43;1.38;;;;;;;;;;4993208;28;20124;-46
2022/08/22 02:06:22;;;;;;;7.05;1.48;;;;;;;;;;4998760;28;20041;-49
2022/08/22 02:08:56;;;;;;;12.15;1.55;;;;;;;;;;4991029;28;20487;-50
2022/08/22 02:11:37;;;;;;;7.03;1.80;;;;;;;;;;4985413;28;20038;-47
2022/08/22 02:14:06;;;;;;;7.43;1.65;;;;;;;;;;5005818;28;20052;-47
2022/08/22 02:16:36;;;;;;;10.90;3.05;;;;;;;;;;4998799;28;20030;-47
2022/08/22 02:19:07;;;;;;;7.07;1.40;;;;;;;;;;5005835;28;20096;-47
2022/08/22 02:21:44;;;;;;;8.02;1.50;;;;;;;;;;5002766;28;20110;-45
2022/08/22 02:24:22;;;;;;;6.60;1.53;;;;;;;;;;4995894;28;20254;-49
2022/08/22 02:26:56;;;;;;;11.10;2.70;;;;;;;;;;5009542;28;20091;-46
2022/08/22 02:29:29;;;;;;;5.20;1.80;;;;;;;;;;5004361;28;20411;-46
2022/08/22 02:31:57;;;;;;;5.95;1.20;;;;;;;;;;5000817;28;20041;-46
2022/08/22 02:34:30;;;;;;;6.68;1.67;;;;;;;;;;5004843;28;20088;-48
2022/08/22 02:37:03;;;;;;;8.07;2.03;;;;;;;;;;4996192;28;20037;-50
2022/08/22 02:39:33;;;;;;;6.93;1.60;;;;;;;;;;5005694;28;20082;-48
2022/08/22 02:42:07;;;;;;;8.90;2.58;;;;;;;;;;5001255;28;20076;-48
2022/08/22 02:44:35;;;;;;;7.10;2.10;;;;;;;;;;4998328;28;20045;-46
2022/08/22 02:47:05;;;;;;;7.80;1.50;;;;;;;;;;5007255;28;20502;-47
2022/08/22 02:49:34;;;;;;;6.30;1.60;;;;;;;;;;5000613;28;20530;-46
2022/08/22 02:52:07;;;;;;;7.00;1.60;;;;;;;;;;4978835;28;20097;-45
2022/08/22 02:54:37;;;;;;;6.82;1.42;;;;;;;;;;4978813;28;20057;-48
2022/08/22 02:57:06;;;;;;;6.85;1.60;;;;;;;;;;4991489;28;20677;-51
2022/08/22 02:59:34;;;;;;;7.93;1.73;;;;;;;;;;4974560;28;20419;-46
2022/08/22 03:02:15;;;;;;;13.23;1.70;;;;;;;;;;5006113;28;20057;-46
2022/08/22 03:04:46;;;;;;;8.07;1.40;;;;;;;;;;4999717;28;20056;-49
2022/08/22 03:07:18;;;;;;;6.95;1.90;;;;;;;;;;5001819;28;20576;-47
2022/08/22 03:09:47;;;;;;;6.65;1.75;;;;;;;;;;5002104;28;20045;-49
2022/08/22 03:12:18;;;;;;;6.22;1.60;;;;;;;;;;5004513;28;20178;-47
2022/08/22 03:14:47;;;;;;;8.60;1.87;;;;;;;;;;5007043;28;20053;-48
2022/08/22 03:17:17;;;;;;;12.70;1.75;;;;;;;;;;5005456;28;20396;-48
2022/08/22 03:19:47;;;;;;;5.90;1.70;;;;;;;;;;5002472;28;20053;-48
2022/08/22 03:22:17;;;;;;;5.50;1.75;;;;;;;;;;4999917;28;20052;-47
2022/08/22 03:24:50;;;;;;;7.80;2.30;;;;;;;;;;4984096;28;20080;-51
2022/08/22 03:27:19;;;;;;;6.40;1.40;;;;;;;;;;4977666;28;20042;-49
2022/08/22 03:29:48;;;;;;;5.13;1.50;;;;;;;;;;4993236;28;20581;-45
2022/08/22 03:32:17;;;;;;;5.65;1.52;;;;;;;;;;5001510;28;20618;-46
2022/08/22 03:34:54;;;;;;;5.85;2.00;;;;;;;;;;4977966;28;20068;-48
2022/08/22 03:37:23;;;;;;;6.50;2.00;;;;;;;;;;5000474;28;20487;-48
2022/08/22 03:39:54;;;;;;;7.40;2.30;;;;;;;;;;5003169;28;20038;-47
2022/08/22 03:42:35;;;;;;;7.05;2.20;;;;;;;;;;5001266;28;20042;-47
2022/08/22 03:45:20;;;;;;;9.75;2.70;;;;;;;;;;4938314;28;20531;-45
2022/08/22 03:48:07;;;;;;;9.68;2.03;;;;;;;;;;4948224;28;21194;-47
2022/08/22 03:50:46;;;;;;;8.02;2.03;;;;;;;;;;4994103;28;20116;-47
2022/08/22 03:53:23;;;;;;;6.83;1.93;;;;;;;;;;5005498;28;20041;-47
2022/08/22 03:56:09;;;;;;;8.45;2.08;;;;;;;;;;4992030;28;20029;-47
2022/08/22 03:58:51;;;;;;;9.00;2.78;;;;;;;;;;4987131;28;20046;-45
2022/08/22 04:01:33;;;;;;;9.60;2.45;;;;;;;;;;4981387;28;20073;-47
2022/08/22 04:04:17;;;;;;;9.48;2.67;;;;;;;;;;4953707;28;20065;-47
2022/08/22 04:06:50;;;;;;;9.13;2.13;;;;;;;;;;5009857;28;20052;-48
2022/08/22 04:09:27;;;;;;;8.05;1.63;;;;;;;;;;5000962;28;20507;-46
2022/08/22 04:12:12;;;;;;;7.63;1.85;;;;;;;;;;5008237;28;20049;-47
2022/08/22 04:14:50;;;;;;;8.48;1.65;;;;;;;;;;4990476;28;20128;-48
2022/08/22 04:17:35;;;;;;;10.27;1.92;;;;;;;;;;4999142;28;20046;-48
2022/08/22 04:20:20;;;;;;;5.00;1.47;;;;;;;;;;5009666;28;20523;-50
2022/08/22 04:22:59;;;;;;;9.05;2.05;;;;;;;;;;4998612;28;20785;-48
2022/08/22 04:25:29;;;;;;;6.47;2.05;;;;;;;;;;5009006;28;20561;-48
2022/08/22 04:28:00;;;;;;;8.90;2.17;;;;;;;;;;4999298;28;20038;-46
2022/08/22 04:30:32;;;;;;;9.93;2.00;;;;;;;;;;4996850;28;20107;-46
2022/08/22 04:33:01;;;;;;;10.70;2.10;;;;;;;;;;4998483;28;20053;-45
2022/08/22 04:35:31;;;;;;;10.25;2.00;;;;;;;;;;4997591;28;20049;-49
2022/08/22 04:37:59;;;;;;;7.60;2.40;;;;;;;;;;4983160;28;20133;-48
2022/08/22 04:40:27;;;;;;;7.03;2.53;;;;;;;;;;4992941;28;20093;-48
2022/08/22 04:42:57;;;;;;;10.50;2.55;;;;;;;;;;5008401;28;20048;-47
2022/08/22 04:45:26;;;;;;;8.60;3.30;;;;;;;;;;4993977;28;20704;-47
2022/08/22 04:47:56;;;;;;;9.82;2.28;;;;;;;;;;4991378;28;20041;-45
2022/08/22 04:50:24;;;;;;;8.80;2.47;;;;;;;;;;4991784;28;20042;-45
2022/08/22 04:52:58;;;;;;;11.02;3.10;;;;;;;;;;5000959;28;20042;-49
2022/08/22 04:55:30;;;;;;;9.80;2.78;;;;;;;;;;4997914;28;20759;-45
2022/08/22 04:58:01;;;;;;;8.50;2.37;;;;;;;;;;4996250;28;20069;-45
2022/08/22 05:00:35;;;;;;;10.68;2.70;;;;;;;;;;5000304;28;20100;-46
2022/08/22 05:03:03;;;;;;;11.50;2.83;;;;;;;;;;4999312;28;20045;-46
2022/08/22 05:05:33;;;;;;;9.07;2.65;;;;;;;;;;5001734;28;20044;-46
2022/08/22 05:08:02;;;;;;;11.02;2.72;;;;;;;;;;4992933;28;20037;-49
2022/08/22 05:10:34;;;;;;;9.20;3.07;;;;;;;;;;5002888;28;20104;-45
2022/08/22 05:13:02;;;;;;;6.18;2.65;;;;;;;;;;4986950;28;20498;-47
2022/08/22 05:15:33;;;;;;;10.20;2.78;;;;;;;;;;4995755;28;20041;-46
2022/08/22 05:18:02;;;;;;;7.63;2.45;;;;;;;;;;5002932;28;20041;-46
2022/08/22 05:20:30;;;;;;;7.30;2.40;;;;;;;;;;5001591;28;20046;-48
2022/08/22 05:23:00;;;;;;;11.40;2.80;;;;;;;;;;4984314;28;20054;-47
2022/08/22 05:25:29;;;;;;;11.90;2.47;;;;;;;;;;4993096;28;20034;-48
2022/08/22 05:28:09;;;;;;;12.25;2.40;;;;;;;;;;4996344;28;20038;-48
2022/08/22 05:30:36;;;;;;;9.35;2.58;;;;;;;;;;4981674;28;20499;-46
2022/08/22 05:33:11;;;;;;;6.70;2.35;;;;;;;;;;4975201;28;20132;-49
2022/08/22 05:35:42;;;;;;;8.20;1.93;;;;;;;;;;5000889;28;20049;-46
2022/08/22 05:38:12;;;;;;;9.10;2.55;;;;;;;;;;5000892;28;20049;-46
2022/08/22 05:40:41;;;;;;;8.20;2.40;;;;;;;;;;4999163;28;20587;-47
2022/08/22 05:43:09;;;;;;;9.50;3.17;;;;;;;;;;5000764;28;20077;-47
2022/08/22 05:45:37;;;;;;;10.13;3.42;;;;;;;;;;5002809;28;20053;-46
2022/08/22 05:48:05;;;;;;;12.83;3.33;;;;;;;;;;4999001;28;20050;-48
2022/08/22 05:50:35;;;;;;;13.90;2.80;;;;;;;;;;4998528;28;20057;-47
2022/08/22 05:53:06;;;;;;;9.75;2.97;;;;;;;;;;4993295;28;20843;-48
2022/08/22 05:55:37;;;;;;;10.43;3.05;;;;;;;;;;5003983;28;20045;-48
2022/08/22 05:58:13;;;;;;;11.55;3.00;;;;;;;;;;4996421;28;20080;-47
2022/08/22 06:00:42;;;;;;;8.37;3.37;;;;;;;;;;4998489;28;20042;-45
2022/08/22 06:03:13;;;;;;;9.18;3.65;;;;;;;;;;4993367;28;20037;-47
2022/08/22 06:05:42;;;;;;;11.93;4.05;;;;;;;;;;4992560;28;20210;-45
2022/08/22 06:08:14;;;;;;;11.35;3.40;;;;;;;;;;5000836;28;20053;-48
2022/08/22 06:10:43;;;;;;;8.50;3.30;;;;;;;;;;4995890;28;20097;-47
2022/08/22 06:13:11;;;;;;;12.00;3.43;;;;;;;;;;5002264;28;20037;-49
2022/08/22 06:15:44;;;;;;;8.25;3.10;;;;;;;;;;5007620;28;20038;-47
2022/08/22 06:18:12;;;;;;;9.80;3.10;;;;;;;;;;4988235;28;20045;-44
2022/08/22 06:20:42;;;;;;;8.40;2.80;;;;;;;;;;4978224;28;20088;-46
2022/08/22 06:23:08;;;;;;;15.30;3.83;;;;;;;;;;4995396;28;20061;-45
2022/08/22 06:25:39;;;;;;;10.53;2.43;;;;;;;;;;4998851;28;20037;-44
2022/08/22 06:28:08;;;;;;;8.98;2.78;;;;;;;;;;4986872;28;20046;-49
2022/08/22 06:30:35;;;;;;;11.90;3.90;;;;;;;;;;4987503;28;20061;-49
2022/08/22 06:33:04;;;;;;;9.27;3.08;;;;;;;;;;4998855;28;20128;-47
2022/08/22 06:36:29;;;;;;;9.45;3.15;;;;;;;;;;5000907;28;20442;-47
2022/08/22 06:38:21;;;;;;;10.43;3.53;;;;;;;;;;5002213;28;20116;-47
2022/08/22 06:40:49;;;;;;;9.98;3.00;;;;;;;;;;4998292;28;20049;-45
2022/08/22 06:43:17;;;;;;;7.47;2.90;;;;;;;;;;5008960;28;20041;-49
2022/08/22 06:45:44;;;;;;;7.18;2.50;;;;;;;;;;4983471;28;20373;-46
2022/08/22 06:48:13;;;;;;;8.20;2.47;;;;;;;;;;4999203;28;20766;-47
2022/08/22 06:50:41;;;;;;;7.90;2.50;;;;;;;;;;5012003;28;20455;-45
2022/08/22 06:53:10;;;;;;;9.25;3.10;;;;;;;;;;5009864;28;20053;-46
2022/08/22 06:55:38;;;;;;;8.02;2.38;;;;;;;;;;4993758;28;20393;-47
2022/08/22 06:58:11;;;;;;;8.15;2.00;;;;;;;;;;4984845;28;20041;-51
2022/08/22 07:00:40;;;;;;;6.50;2.15;;;;;;;;;;4990939;28;20038;-48
2022/08/22 07:03:10;;;;;;;7.23;2.00;;;;;;;;;;4996486;28;20104;-46
2022/08/22 07:05:39;;;;;;;6.88;1.52;;;;;;;;;;4996926;28;20052;-50
2022/08/22 07:08:07;;;;;;;7.85;1.88;;;;;;;;;;5000329;28;20042;-46
2022/08/22 07:10:34;;;;;;;7.90;2.00;;;;;;;;;;5006777;28;20038;-48
2022/08/22 07:13:03;;;;;;;8.82;2.00;;;;;;;;;;5002156;28;20060;-48
2022/08/22 07:15:34;;;;;;;6.97;1.73;;;;;;;;;;5007898;28;20587;-46
2022/08/22 07:18:02;;;;;;;9.68;1.75;;;;;;;;;;4999693;28;20041;-46
2022/08/22 07:20:30;;;;;;;9.02;1.83;;;;;;;;;;5012849;28;20049;-45
2022/08/22 07:22:58;;;;;;;8.60;1.83;;;;;;;;;;5004713;28;20033;-49
2022/08/22 07:25:25;;;;;;;4.45;1.02;;;;;;;;;;4975638;28;20034;-45
2022/08/22 07:27:58;;;;;;;8.47;1.30;;;;;;;;;;4997827;28;20100;-48
2022/08/22 07:30:33;;;;;;;6.15;1.20;;;;;;;;;;5004329;28;20490;-50
2022/08/22 07:33:03;;;;;;;5.35;1.20;;;;;;;;;;4995355;28;20041;-46
2022/08/22 07:35:33;;;;;;;3.78;0.90;;;;;;;;;;4999824;28;20041;-48
2022/08/22 07:38:04;;;;;;;5.82;0.85;;;;;;;;;;4988094;28;20108;-47
2022/08/22 07:40:34;;;;;;;4.40;1.10;;;;;;;;;;4974437;28;20037;-50
2022/08/22 07:43:04;;;;;;;4.43;1.00;;;;;;;;;;5009009;28;20033;-50
2022/08/22 07:45:33;;;;;;;5.60;1.17;;;;;;;;;;5006745;28;20041;-48
2022/08/22 07:48:07;;;;;;;5.22;0.80;;;;;;;;;;4999654;28;20088;-49
2022/08/22 07:50:35;;;;;;;7.00;1.00;;;;;;;;;;4981845;28;20034;-48
2022/08/22 07:53:08;;;;;;;7.10;1.00;;;;;;;;;;5004491;28;20566;-49
2022/08/22 07:55:37;;;;;;;5.25;1.33;;;;;;;;;;5005066;28;20037;-46
2022/08/22 07:58:06;;;;;;;10.48;2.03;;;;;;;;;;4988355;28;20065;-50
2022/08/22 08:00:33;;;;;;;13.75;1.85;;;;;;;;;;4998774;28;20495;-47
2022/08/22 08:03:02;;;;;;;6.35;1.77;;;;;;;;;;5008130;28;20045;-48
2022/08/22 08:05:31;;;;;;;6.23;1.77;;;;;;;;;;5002100;28;20049;-49
2022/08/22 08:08:13;;;;;;;6.22;1.90;;;;;;;;;;4710244;28;10000791;-47
2022/08/22 08:10:40;;;;;;;7.22;2.03;;;;;;;;;;4961964;28;20221;-50
2022/08/22 08:13:08;;;;;;;6.77;1.70;;;;;;;;;;5004470;28;20049;-51
2022/08/22 08:15:38;;;;;;;5.35;1.90;;;;;;;;;;4999553;28;20040;-49
2022/08/22 08:18:05;;;;;;;6.20;1.45;;;;;;;;;;4999395;28;20046;-49
2022/08/22 08:20:34;;;;;;;7.05;1.77;;;;;;;;;;4979464;28;20037;-47
2022/08/22 08:23:03;;;;;;;8.02;2.00;;;;;;;;;;4978896;28;20057;-48
2022/08/22 08:25:31;;;;;;;7.20;1.57;;;;;;;;;;4647114;28;9999855;-49
2022/08/22 08:30:44;;;;;;;6.20;1.77;;;;;;;;;;4971344;28;20497;-49
2022/08/22 08:33:13;;;;;;;12.70;2.27;;;;;;;;;;4951297;28;20172;-48
2022/08/22 08:35:44;;;;;;;6.45;1.70;;;;;;;;;;4973568;28;20045;-49
2022/08/22 08:38:13;;;;;;;10.57;2.22;;;;;;;;;;4970884;28;20487;-49
2022/08/22 08:40:58;;;;;;;7.70;1.98;;;;;;;;;;4963306;28;20419;-48
2022/08/22 08:43:33;;;;;;;9.20;2.17;;;;;;;;;;4975837;28;20038;-51
2022/08/22 08:46:15;;;;;;;7.63;2.00;;;;;;;;;;4974268;28;20565;-48
2022/08/22 08:48:58;;;;;;;7.50;1.90;;;;;;;;;;4929893;28;20050;-51
2022/08/22 08:51:33;;;;;;;5.57;1.35;;;;;;;;;;4952253;28;20349;-51
2022/08/22 08:54:14;;;;;;;5.78;1.73;;;;;;;;;;4966707;28;20054;-49
2022/08/22 08:56:47;;;;;;;6.75;1.92;;;;;;;;;;4968876;28;20053;-49
2022/08/22 08:59:24;;;;;;;5.50;1.20;;;;;;;;;;4967242;28;20077;-52
2022/08/22 09:02:12;;;;;;;6.05;2.00;;;;;;;;;;4965925;28;20076;-48
2022/08/22 09:05:07;;;;;;;6.70;2.17;;;;;;;;;;4971587;28;20125;-51
2022/08/22 09:07:45;;;;;;;5.88;1.90;;;;;;;;;;4969407;28;20662;-48
2022/08/22 09:10:22;;;;;;;8.50;1.80;;;;;;;;;;4962315;28;20057;-46
2022/08/22 09:13:02;;;;;;;6.93;2.00;;;;;;;;;;4941113;28;20108;-46
2022/08/22 09:15:36;;;;;;;8.25;1.92;;;;;;;;;;4948555;28;21428;-48
2022/08/22 09:18:18;;;;;;;7.07;1.52;;;;;;;;;;4972019;28;20041;-49
2022/08/22 09:21:00;;;;;;;7.00;2.17;;;;;;;;;;4964533;28;20065;-47
2022/08/22 09:23:46;;;;;;;6.95;2.30;;;;;;;;;;4948454;28;20060;-47
2022/08/22 09:26:16;;;;;;;8.57;2.37;;;;;;;;;;4965263;28;20053;-48
2022/08/22 09:28:47;;;;;;;7.15;2.40;;;;;;;;;;4968740;28;20041;-50
2022/08/22 09:31:28;;;;;;;5.80;1.90;;;;;;;;;;4950082;28;20487;-45
2022/08/22 09:33:57;;;;;;;7.63;2.40;;;;;;;;;;4962361;28;20465;-45
2022/08/22 09:36:27;;;;;;;5.60;2.13;;;;;;;;;;4965887;28;20701;-46
2022/08/22 09:38:56;;;;;;;6.90;1.90;;;;;;;;;;4964705;28;21446;-51
2022/08/22 09:41:26;;;;;;;5.75;1.83;;;;;;;;;;4957266;28;20104;-48
2022/08/22 09:44:03;;;;;;;7.78;3.00;;;;;;;;;;4956324;28;20046;-48
2022/08/22 09:46:33;;;;;;;7.00;1.75;;;;;;;;;;4962140;28;20744;-49
2022/08/22 09:49:03;;;;;;;8.10;1.83;;;;;;;;;;4968488;28;20399;-50
2022/08/22 09:51:37;;;;;;;8.13;1.90;;;;;;;;;;4934546;28;20042;-47
2022/08/22 09:54:25;;;;;;;5.38;2.13;;;;;;;;;;4971258;28;20030;-47
2022/08/22 09:56:57;;;;;;;5.28;1.60;;;;;;;;;;4940321;28;20352;-49
2022/08/22 09:59:27;;;;;;;5.80;1.90;;;;;;;;;;4969885;28;20144;-47
2022/08/22 10:01:55;;;;;;;5.38;2.03;;;;;;;;;;4955784;28;20045;-49
2022/08/22 10:04:41;;;;;;;6.43;1.97;;;;;;;;;;4954756;28;20065;-51
2022/08/22 10:07:18;;;;;;;7.20;1.80;;;;;;;;;;4963772;28;20494;-46
2022/08/22 10:09:52;;;;;;;7.53;2.45;;;;;;;;;;4963682;28;20046;-48
2022/08/22 10:12:28;;;;;;;9.57;2.35;;;;;;;;;;4965396;28;20050;-51
2022/08/22 10:15:03;;;;;;;6.55;2.03;;;;;;;;;;4967261;28;20056;-48
2022/08/22 10:17:31;;;;;;;10.23;1.80;;;;;;;;;;4964678;28;20598;-46
2022/08/22 10:20:01;;;;;;;7.32;1.95;;;;;;;;;;4973145;28;20049;-50
2022/08/22 10:22:40;;;;;;;7.82;1.90;;;;;;;;;;4959003;28;20049;-47
2022/08/22 10:25:22;;;;;;;7.57;2.10;;;;;;;;;;4627071;28;10000450;-48
2022/08/22 10:28:04;;;;;;;4.97;1.42;;;;;;;;;;4967208;28;20154;-47
2022/08/22 10:30:34;;;;;;;6.45;1.38;;;;;;;;;;4958168;28;20105;-46
2022/08/22 10:33:03;;;;;;;7.78;1.73;;;;;;;;;;4951568;28;20045;-51
2022/08/22 10:35:33;;;;;;;6.28;1.35;;;;;;;;;;4965402;28;20041;-49
2022/08/22 10:38:00;;;;;;;4.50;1.60;;;;;;;;;;4971916;28;20053;-48
2022/08/22 10:40:29;;;;;;;7.40;1.90;;;;;;;;;;4964723;28;20162;-47
2022/08/22 10:42:59;;;;;;;7.22;1.70;;;;;;;;;;4980428;28;20125;-46
2022/08/22 10:45:28;;;;;;;5.28;1.25;;;;;;;;;;4979629;28;20787;-49
2022/08/22 10:48:14;;;;;;;4.80;1.10;;;;;;;;;;4970163;28;20040;-49
2022/08/22 10:50:44;;;;;;;3.67;1.47;;;;;;;;;;4969071;28;20042;-47
2022/08/22 10:53:32;;;;;;;6.22;1.20;;;;;;;;;;4982097;28;20042;-48
2022/08/22 10:56:13;;;;;;;4.70;1.40;;;;;;;;;;4960581;28;20128;-48
2022/08/22 10:58:42;;;;;;;6.78;1.30;;;;;;;;;;4978924;28;20042;-49
2022/08/22 11:01:11;;;;;;;5.32;1.25;;;;;;;;;;4977186;28;20042;-47
2022/08/22 11:03:42;;;;;;;5.87;1.27;;;;;;;;;;4961400;28;20469;-48
2022/08/22 11:06:14;;;;;;;4.63;1.05;;;;;;;;;;4988762;28;20042;-47
2022/08/22 11:09:06;;;;;;;5.45;1.33;;;;;;;;;;4977358;28;20033;-50
2022/08/22 11:11:38;;;;;;;5.43;1.27;;;;;;;;;;4983183;28;20499;-49
2022/08/22 11:14:22;;;;;;;5.55;1.45;;;;;;;;;;4974304;28;20052;-47
2022/08/22 11:16:55;;;;;;;4.13;1.30;;;;;;;;;;4978387;28;20443;-46
2022/08/22 11:19:30;;;;;;;5.70;1.45;;;;;;;;;;4980167;28;20669;-47
2022/08/22 11:22:05;;;;;;;5.95;1.30;;;;;;;;;;4969757;28;20042;-47
2022/08/22 11:24:50;;;;;;;5.32;1.45;;;;;;;;;;4968077;28;20057;-50
2022/08/22 11:27:21;;;;;;;4.53;1.45;;;;;;;;;;4977242;28;20268;-49
2022/08/22 11:29:51;;;;;;;8.33;1.60;;;;;;;;;;4981931;28;20049;-48
2022/08/22 11:32:24;;;;;;;5.35;1.17;;;;;;;;;;4614642;28;9999990;-49
2022/08/22 11:34:54;;;;;;;4.22;1.10;;;;;;;;;;4985594;28;20049;-50
2022/08/22 11:37:39;;;;;;;4.97;1.30;;;;;;;;;;4955576;28;20743;-46
2022/08/22 11:40:14;;;;;;;3.45;0.85;;;;;;;;;;4970068;28;20929;-48
2022/08/22 11:42:44;;;;;;;4.77;1.07;;;;;;;;;;4978652;28;20056;-47
2022/08/22 11:45:14;;;;;;;6.13;1.10;;;;;;;;;;4986094;28;20038;-48
2022/08/22 11:47:47;;;;;;;3.45;0.70;;;;;;;;;;4985968;28;20058;-49
2022/08/22 11:50:17;;;;;;;4.00;0.98;;;;;;;;;;4952798;28;20046;-47
2022/08/22 11:52:55;;;;;;;4.53;1.15;;;;;;;;;;4979320;28;20431;-49
2022/08/22 11:55:26;;;;;;;4.00;0.93;;;;;;;;;;4976090;28;20121;-47
2022/08/22 11:57:55;;;;;;;6.25;1.23;;;;;;;;;;4977309;28;20105;-48
2022/08/22 12:00:28;;;;;;;4.45;1.17;;;;;;;;;;4973948;28;20038;-48
2022/08/22 12:03:05;;;;;;;3.35;0.60;;;;;;;;;;4963349;28;20046;-51
2022/08/22 12:05:33;;;;;;;3.40;0.65;;;;;;;;;;4979043;28;20046;-50
2022/08/22 12:08:05;;;;;;;5.00;0.80;;;;;;;;;;4958819;28;20054;-51
2022/08/22 12:10:34;;;;;;;3.60;0.90;;;;;;;;;;4625057;28;9999966;-50
2022/08/22 12:13:05;;;;;;;5.43;0.90;;;;;;;;;;4979514;28;20097;-48
2022/08/22 12:15:35;;;;;;;3.67;0.77;;;;;;;;;;4985749;28;20050;-46
2022/08/22 12:18:20;;;;;;;3.23;0.97;;;;;;;;;;4972364;28;20526;-50
2022/08/22 12:20:57;;;;;;;4.03;0.88;;;;;;;;;;4964627;28;20077;-51
2022/08/22 12:23:34;;;;;;;5.07;0.70;;;;;;;;;;4988678;28;20038;-51
2022/08/22 12:26:08;;;;;;;4.20;0.82;;;;;;;;;;4990089;28;20616;-48
2022/08/22 12:28:38;;;;;;;6.15;0.63;;;;;;;;;;5000440;28;20056;-47
2022/08/22 12:31:09;;;;;;;4.60;1.00;;;;;;;;;;4998088;28;20259;-50
2022/08/22 12:33:56;;;;;;;2.75;0.52;;;;;;;;;;5000457;28;20095;-46
2022/08/22 12:36:42;;;;;;;4.10;0.50;;;;;;;;;;4998264;28;20033;-48
2022/08/22 12:39:23;;;;;;;3.05;0.90;;;;;;;;;;4992733;28;20562;-46
2022/08/22 12:42:16;;;;;;;3.67;0.93;;;;;;;;;;5002772;28;20107;-45
2022/08/22 12:44:51;;;;;;;3.93;0.83;;;;;;;;;;4985020;28;21009;-46
2022/08/22 12:47:26;;;;;;;3.08;0.80;;;;;;;;;;4965760;28;20106;-50
2022/08/22 12:50:16;;;;;;;6.53;1.27;;;;;;;;;;4966650;28;20038;-48
2022/08/22 12:52:54;;;;;;;3.35;0.80;;;;;;;;;;4973563;28;20037;-50
2022/08/22 12:55:28;;;;;;;4.63;0.80;;;;;;;;;;4981895;28;20492;-46
2022/08/22 12:58:02;;;;;;;5.43;1.07;;;;;;;;;;4973645;28;20891;-47
2022/08/22 13:00:31;;;;;;;5.00;1.10;;;;;;;;;;4980397;28;20603;-50
2022/08/22 13:02:59;;;;;;;3.28;0.75;;;;;;;;;;4985284;28;20069;-51
2022/08/22 13:05:27;;;;;;;3.25;0.77;;;;;;;;;;4957654;28;20048;-46
2022/08/22 13:07:54;;;;;;;4.30;0.90;;;;;;;;;;4992383;28;20746;-49
2022/08/22 13:10:30;;;;;;;4.47;1.13;;;;;;;;;;4965416;28;20491;-51
2022/08/22 13:12:59;;;;;;;4.03;0.85;;;;;;;;;;4983856;28;20120;-50
2022/08/22 13:15:28;;;;;;;3.58;1.05;;;;;;;;;;4990352;28;20443;-51
2022/08/22 13:17:55;;;;;;;3.63;0.68;;;;;;;;;;4959173;28;20067;-49
2022/08/22 13:20:24;;;;;;;3.50;0.90;;;;;;;;;;4990507;28;20044;-46
2022/08/22 13:22:50;;;;;;;4.73;0.93;;;;;;;;;;4962304;28;20384;-47
2022/08/22 13:25:31;;;;;;;5.07;1.10;;;;;;;;;;4967991;28;20500;-47
2022/08/22 13:28:01;;;;;;;3.83;1.00;;;;;;;;;;4940050;28;20038;-51
2022/08/22 13:30:30;;;;;;;4.85;1.10;;;;;;;;;;4971526;28;20049;-50
2022/08/22 13:33:01;;;;;;;3.22;0.98;;;;;;;;;;4968035;28;20049;-48
2022/08/22 13:35:33;;;;;;;4.03;0.80;;;;;;;;;;4963031;28;20344;-48
2022/08/22 13:38:04;;;;;;;3.75;1.00;;;;;;;;;;4968465;28;20064;-47
2022/08/22 13:40:33;;;;;;;4.60;1.20;;;;;;;;;;4970768;28;20054;-47
2022/08/22 13:43:17;;;;;;;3.80;1.23;;;;;;;;;;4953376;28;20038;-47
2022/08/22 13:45:52;;;;;;;6.10;1.27;;;;;;;;;;4948940;28;20417;-46
2022/08/22 13:48:22;;;;;;;4.23;0.90;;;;;;;;;;4961455;28;20053;-49
2022/08/22 13:50:57;;;;;;;5.47;1.25;;;;;;;;;;4970795;28;20778;-49
2022/08/22 13:53:26;;;;;;;4.30;1.20;;;;;;;;;;4967145;28;20333;-49
2022/08/22 13:55:57;;;;;;;4.25;1.10;;;;;;;;;;4934114;28;20344;-49
2022/08/22 13:58:44;;;;;;;5.10;1.33;;;;;;;;;;4929672;28;20085;-48
2022/08/22 14:01:38;;;;;;;5.03;1.53;;;;;;;;;;4898043;28;20057;-50
2022/08/22 14:04:11;;;;;;;4.28;1.20;;;;;;;;;;4940284;28;20061;-48
2022/08/22 14:06:40;;;;;;;4.43;1.13;;;;;;;;;;4923399;28;20446;-49
2022/08/22 14:09:10;;;;;;;5.53;1.10;;;;;;;;;;4950700;28;20046;-48
2022/08/22 14:11:39;;;;;;;3.07;0.80;;;;;;;;;;4274994;28;9999846;-49
2022/08/22 14:14:08;;;;;;;3.30;0.90;;;;;;;;;;4955110;28;20049;-51
2022/08/22 14:16:36;;;;;;;3.35;0.90;;;;;;;;;;4966583;28;20038;-48
2022/08/22 14:19:05;;;;;;;5.97;0.70;;;;;;;;;;4977326;28;20045;-50
2022/08/22 14:21:36;;;;;;;3.73;0.90;;;;;;;;;;4959991;28;20610;-48
2022/08/22 14:24:05;;;;;;;3.72;0.55;;;;;;;;;;4945174;28;20695;-47
2022/08/22 14:26:36;;;;;;;3.10;0.68;;;;;;;;;;4950974;28;20250;-48
2022/08/22 14:29:05;;;;;;;2.97;0.50;;;;;;;;;;4968236;28;20050;-47
2022/08/22 14:31:34;;;;;;;3.15;0.77;;;;;;;;;;4955799;28;20057;-49
2022/08/22 14:34:03;;;;;;;3.07;0.70;;;;;;;;;;4963061;28;20046;-46
2022/08/22 14:36:35;;;;;;;3.40;0.70;;;;;;;;;;4957433;28;20051;-48
2022/08/22 14:39:07;;;;;;;4.40;0.80;;;;;;;;;;4958939;28;20050;-47
2022/08/22 14:41:37;;;;;;;3.35;0.80;;;;;;;;;;4946479;28;21483;-48
2022/08/22 14:44:07;;;;;;;3.90;1.00;;;;;;;;;;4960458;28;20298;-52
2022/08/22 14:46:41;;;;;;;3.90;0.80;;;;;;;;;;4931144;28;20049;-46
2022/08/22 14:49:25;;;;;;;4.00;0.88;;;;;;;;;;4955286;28;20077;-49
2022/08/22 14:51:56;;;;;;;3.55;1.00;;;;;;;;;;4915710;28;20435;-46
2022/08/22 14:54:24;;;;;;;4.28;1.35;;;;;;;;;;4942798;28;20487;-47
2022/08/22 14:56:52;;;;;;;4.03;0.90;;;;;;;;;;4968532;28;21014;-49
2022/08/22 14:59:26;;;;;;;5.00;0.90;;;;;;;;;;4969588;28;20050;-47
2022/08/22 15:01:56;;;;;;;3.60;0.90;;;;;;;;;;4963456;28;20104;-49
2022/08/22 15:04:33;;;;;;;2.75;0.60;;;;;;;;;;4966513;28;20117;-48
2022/08/22 15:07:01;;;;;;;5.53;0.82;;;;;;;;;;4968843;28;20044;-47
2022/08/22 15:09:31;;;;;;;3.65;0.90;;;;;;;;;;4962933;28;20524;-47
2022/08/22 15:11:58;;;;;;;2.53;0.67;;;;;;;;;;4965624;28;20050;-50
2022/08/22 15:14:26;;;;;;;4.88;0.68;;;;;;;;;;4968669;28;20046;-49
2022/08/22 15:16:55;;;;;;;3.25;0.40;;;;;;;;;;4966130;28;20045;-52
2022/08/22 15:19:24;;;;;;;2.75;0.65;;;;;;;;;;4974864;28;20135;-48